createdAt,value
2022-11-23T00:02:28.693Z,21.98
2022-11-23T00:07:30.451Z,14.90
2022-11-23T00:12:32.146Z,13.32
2022-11-23T00:17:34.992Z,15.88
2022-11-23T00:22:36.687Z,15.68
2022-11-23T00:27:38.361Z,13.77
2022-11-23T00:32:40.011Z,16.02
2022-11-23T00:37:41.686Z,16.42
2022-11-23T00:42:43.345Z,16.35
2022-11-23T00:47:45.009Z,16.60
2022-11-23T00:52:46.709Z,15.00
2022-11-23T00:57:48.351Z,13.93
2022-11-23T01:02:50.050Z,14.55
2022-11-23T01:07:54.636Z,13.60
2022-11-23T01:12:56.353Z,15.68
2022-11-23T01:17:58.023Z,14.82
2022-11-23T01:22:59.654Z,15.25
2022-11-23T01:28:01.299Z,12.35
2022-11-23T01:33:04.074Z,15.60
2022-11-23T01:38:06.328Z,10.25
2022-11-23T01:43:15.721Z,14.05
2022-11-23T01:48:32.405Z,15.55
2022-11-23T01:53:34.354Z,14.80
2022-11-23T01:58:39.863Z,15.55
2022-11-23T02:03:43.806Z,13.27
2022-11-23T02:08:47.031Z,14.23
2022-11-23T02:13:51.036Z,17.98
2022-11-23T02:18:53.468Z,15.48
2022-11-23T02:24:12.753Z,12.88
2022-11-23T02:29:26.868Z,11.63
2022-11-23T02:34:28.571Z,15.68
2022-11-23T02:39:36.888Z,13.98
2022-11-23T02:45:10.527Z,13.30
2022-11-23T02:50:12.207Z,11.80
2022-11-23T02:55:13.932Z,14.50
2022-11-23T03:00:16.332Z,14.02
2022-11-23T03:05:18.005Z,15.70
2022-11-23T03:10:19.875Z,13.88
2022-11-23T03:15:21.587Z,14.38
2022-11-23T03:20:23.209Z,12.20
2022-11-23T03:25:24.862Z,18.02
2022-11-23T03:30:26.472Z,15.30
2022-11-23T03:35:28.196Z,12.77
2022-11-23T03:40:29.876Z,14.07
2022-11-23T03:45:32.007Z,16.23
2022-11-23T03:50:33.806Z,17.17
2022-11-23T03:55:35.592Z,16.98
2022-11-23T04:00:37.334Z,13.23
2022-11-23T04:05:39.099Z,12.07
2022-11-23T04:10:40.792Z,10.98
2022-11-23T04:15:42.512Z,16.42
2022-11-23T04:20:44.233Z,13.82
2022-11-23T04:25:46.583Z,13.65
2022-11-23T04:30:48.267Z,14.43
2022-11-23T04:35:50.007Z,15.48
2022-11-23T04:40:51.832Z,13.50
2022-11-23T04:45:53.477Z,13.77
2022-11-23T04:50:55.905Z,13.30
2022-11-23T04:55:57.730Z,12.43
2022-11-23T05:00:59.672Z,13.43
2022-11-23T05:06:02.943Z,17.50
2022-11-23T05:11:04.830Z,15.98
2022-11-23T05:16:07.982Z,19.38
2022-11-23T05:21:09.853Z,17.33
2022-11-23T05:26:11.633Z,16.85
2022-11-23T05:31:13.337Z,14.25
2022-11-23T05:36:15.098Z,18.05
2022-11-23T05:41:16.896Z,16.23
2022-11-23T05:46:18.861Z,16.30
2022-11-23T05:51:20.527Z,18.85
2022-11-23T05:56:22.228Z,23.63
2022-11-23T06:01:24.063Z,21.17
2022-11-23T06:06:25.736Z,20.35
2022-11-23T06:11:27.396Z,18.35
2022-11-23T06:16:29.116Z,21.75
2022-11-23T06:21:30.792Z,18.75
2022-11-23T06:26:32.581Z,23.02
2022-11-23T06:31:34.434Z,20.60
2022-11-23T06:36:36.259Z,19.00
2022-11-23T06:41:38.038Z,25.00
2022-11-23T06:46:39.758Z,22.65
2022-11-23T06:51:41.422Z,21.50
2022-11-23T06:56:43.289Z,18.48
2022-11-23T07:01:45.134Z,22.70
2022-11-23T07:06:46.901Z,24.40
2022-11-23T07:11:48.606Z,21.33
2022-11-23T07:16:50.356Z,23.83
2022-11-23T07:21:52.105Z,20.60
2022-11-23T07:26:53.744Z,23.90
2022-11-23T07:31:55.955Z,23.48
2022-11-23T07:37:01.779Z,19.70
2022-11-23T07:42:31.066Z,23.67
2022-11-23T07:47:25.628Z,17.05
2022-11-23T07:52:27.378Z,25.08
2022-11-23T07:57:29.333Z,21.35
2022-11-23T08:02:31.089Z,19.77
2022-11-23T08:07:32.825Z,18.23
2022-11-23T08:12:34.566Z,24.25
2022-11-23T08:17:36.252Z,19.50
2022-11-23T08:22:37.933Z,18.75
2022-11-23T08:27:39.590Z,20.40
2022-11-23T08:32:41.349Z,20.60
2022-11-23T08:37:43.012Z,19.20
2022-11-23T08:42:44.683Z,18.10
2022-11-23T08:47:46.366Z,17.67
2022-11-23T08:52:48.242Z,19.15
2022-11-23T08:57:50.423Z,16.25
2022-11-23T09:02:52.156Z,21.30
2022-11-23T09:07:54.190Z,19.75
2022-11-23T09:12:56.112Z,30.48
2022-11-23T09:17:57.950Z,19.63
2022-11-23T09:22:59.621Z,16.75
2022-11-23T09:28:01.352Z,17.80
2022-11-23T09:33:03.122Z,17.13
2022-11-23T09:38:04.890Z,13.45
2022-11-23T09:43:24.912Z,13.88
2022-11-23T09:48:37.199Z,12.95
2022-11-23T09:54:06.150Z,15.07
2022-11-23T09:59:39.048Z,11.73
2022-11-23T10:04:40.761Z,10.70
2022-11-23T10:10:03.707Z,10.18
2022-11-23T10:15:18.570Z,12.82
2022-11-23T10:20:50.580Z,11.43
2022-11-23T10:25:53.202Z,9.65
2022-11-23T10:31:23.269Z,9.43
2022-11-23T10:36:24.958Z,10.32
2022-11-23T10:41:26.747Z,9.63
2022-11-23T10:46:34.229Z,10.10
2022-11-23T10:51:37.479Z,8.27
2022-11-23T10:56:47.877Z,7.22
2022-11-23T11:02:16.926Z,6.18
2022-11-23T11:07:28.763Z,7.68
2022-11-23T11:12:34.358Z,7.70
2022-11-23T11:17:37.891Z,9.15
2022-11-23T11:22:46.232Z,9.73
2022-11-23T11:27:52.533Z,9.85
2022-11-23T11:33:11.953Z,7.00
2022-11-23T11:38:37.367Z,5.82
2022-11-23T11:43:53.263Z,8.98
2022-11-23T11:48:59.620Z,7.53
2022-11-23T11:54:37.069Z,10.43
2022-11-23T11:59:43.644Z,7.07
2022-11-23T12:04:50.627Z,7.35
2022-11-23T12:10:00.871Z,7.05
2022-11-23T12:15:20.256Z,8.50
2022-11-23T12:20:39.564Z,8.95
2022-11-23T12:25:49.900Z,7.93
2022-11-23T12:30:54.545Z,8.95
2022-11-23T12:36:08.647Z,8.85
2022-11-23T12:41:16.387Z,9.13
2022-11-23T12:46:52.828Z,6.70
2022-11-23T12:52:00.266Z,8.02
2022-11-23T12:57:19.411Z,8.38
2022-11-23T13:02:53.044Z,10.57
2022-11-23T13:08:25.065Z,10.93
2022-11-23T13:13:50.016Z,9.13
2022-11-23T13:19:10.952Z,10.07
2022-11-23T13:24:36.873Z,8.30
2022-11-23T13:30:01.419Z,8.13
2022-11-23T13:35:04.152Z,10.15
2022-11-23T13:40:21.314Z,9.23
2022-11-23T13:45:34.444Z,10.60
2022-11-23T13:50:55.121Z,7.90
2022-11-23T13:56:15.259Z,11.82
2022-11-23T14:01:55.731Z,11.75
2022-11-23T14:07:16.347Z,7.30
2022-11-23T14:12:36.433Z,10.50
2022-11-23T14:18:01.182Z,9.15
2022-11-23T14:23:24.511Z,8.20
2022-11-23T14:28:26.174Z,10.40
2022-11-23T14:33:40.942Z,11.25
2022-11-23T14:39:03.767Z,10.40
2022-11-23T14:44:06.408Z,11.25
2022-11-23T14:49:15.003Z,11.25
2022-11-23T14:54:17.229Z,12.30
2022-11-23T14:59:29.537Z,10.32
2022-11-23T15:04:38.137Z,10.95
2022-11-23T15:09:50.059Z,10.25
2022-11-23T15:14:54.028Z,10.57
2022-11-23T15:19:56.683Z,12.82
2022-11-23T15:25:09.072Z,11.90
2022-11-23T15:30:22.073Z,10.85
2022-11-23T15:35:31.501Z,11.93
2022-11-23T15:40:37.345Z,14.15
2022-11-23T15:45:41.841Z,11.02
2022-11-23T15:50:58.940Z,15.40
2022-11-23T15:56:04.290Z,14.98
2022-11-23T16:01:12.420Z,10.88
2022-11-23T16:06:14.140Z,13.57
2022-11-23T16:11:49.626Z,11.63
2022-11-23T16:17:05.630Z,13.50
2022-11-23T16:22:16.560Z,12.63
2022-11-23T16:27:24.585Z,12.25
2022-11-23T16:32:28.954Z,13.43
2022-11-23T16:37:30.613Z,11.55
2022-11-23T16:42:32.351Z,13.90
2022-11-23T16:47:34.369Z,13.45
2022-11-23T16:52:39.203Z,10.60
2022-11-23T16:57:42.539Z,18.52
2022-11-23T17:02:44.494Z,14.70
2022-11-23T17:07:46.922Z,14.68
2022-11-23T17:12:54.606Z,12.27
2022-11-23T17:17:56.332Z,16.70
2022-11-23T17:23:01.050Z,14.82
2022-11-23T17:28:04.962Z,14.43
2022-11-23T17:33:09.002Z,15.73
2022-11-23T17:38:19.882Z,13.73
2022-11-23T17:43:21.633Z,19.15
2022-11-23T17:48:23.325Z,15.90
2022-11-23T17:53:25.692Z,13.30
2022-11-23T17:58:27.531Z,16.52
2022-11-23T18:03:29.344Z,15.68
2022-11-23T18:08:31.066Z,17.30
2022-11-23T18:13:32.753Z,16.40
2022-11-23T18:18:34.971Z,17.08
2022-11-23T18:23:37.305Z,20.92
2022-11-23T18:28:39.007Z,13.38
2022-11-23T18:33:41.357Z,15.50
2022-11-23T18:38:44.985Z,16.48
2022-11-23T18:43:46.844Z,15.80
2022-11-23T18:48:50.238Z,14.35
2022-11-23T18:53:53.178Z,15.40
2022-11-23T18:58:54.895Z,11.95
2022-11-23T19:03:56.698Z,11.90
2022-11-23T19:08:58.720Z,12.55
2022-11-23T19:14:01.540Z,11.10
2022-11-23T19:19:05.741Z,11.65
2022-11-23T19:24:09.345Z,11.05
2022-11-23T19:29:11.471Z,14.57
2022-11-23T19:34:13.337Z,14.13
2022-11-23T19:39:14.980Z,12.65
2022-11-23T19:44:16.705Z,12.80
2022-11-23T19:49:18.536Z,11.43
2022-11-23T19:54:20.237Z,13.52
2022-11-23T19:59:21.928Z,14.50
2022-11-23T20:04:23.568Z,12.80
2022-11-23T20:09:27.629Z,13.70
2022-11-23T20:14:29.336Z,10.55
2022-11-23T20:19:31.214Z,15.75
2022-11-23T20:24:33.102Z,11.23
2022-11-23T20:29:35.260Z,13.30
2022-11-23T20:34:37.281Z,9.88
2022-11-23T20:39:39.198Z,11.23
2022-11-23T20:44:40.877Z,12.95
2022-11-23T20:49:42.739Z,13.80
2022-11-23T20:54:44.654Z,13.95
2022-11-23T20:59:46.410Z,11.20
2022-11-23T21:04:48.094Z,11.60
2022-11-23T21:09:50.820Z,13.55
2022-11-23T21:14:53.200Z,13.88
2022-11-23T21:19:54.944Z,15.57
2022-11-23T21:24:56.728Z,19.05
2022-11-23T21:29:58.572Z,14.60
2022-11-23T21:35:00.866Z,15.70
2022-11-23T21:40:02.564Z,15.90
2022-11-23T21:45:04.827Z,18.00
2022-11-23T21:50:06.838Z,23.02
2022-11-23T21:55:09.317Z,13.10
2022-11-23T22:00:11.420Z,17.83
2022-11-23T22:05:15.194Z,15.13
2022-11-23T22:10:17.113Z,13.82
2022-11-23T22:15:18.904Z,15.77
2022-11-23T22:20:20.651Z,16.92
2022-11-23T22:25:22.407Z,16.05
2022-11-23T22:30:24.239Z,15.40
2022-11-23T22:35:32.149Z,13.70
2022-11-23T22:40:34.196Z,15.55
2022-11-23T22:45:35.996Z,18.55
2022-11-23T22:50:37.963Z,12.43
2022-11-23T22:55:40.204Z,14.60
2022-11-23T23:00:42.413Z,12.82
2022-11-23T23:05:52.876Z,14.32
2022-11-23T23:10:55.213Z,16.65
2022-11-23T23:16:01.769Z,14.57
2022-11-23T23:21:11.715Z,14.50
2022-11-23T23:26:15.968Z,14.77
2022-11-23T23:31:17.985Z,16.52
2022-11-23T23:36:21.727Z,15.73
2022-11-23T23:41:23.441Z,15.10
2022-11-23T23:46:25.836Z,13.48
2022-11-23T23:51:27.594Z,13.40
2022-11-23T23:56:29.841Z,14.57
